createdAt,value
2023-04-20T00:01:28.905Z,8.70
2023-04-20T00:03:56.199Z,9.07
2023-04-20T00:06:25.669Z,9.35
2023-04-20T00:08:52.570Z,8.25
2023-04-20T00:11:19.620Z,8.27
2023-04-20T00:13:46.601Z,9.05
2023-04-20T00:16:13.681Z,8.90
2023-04-20T00:18:40.822Z,9.07
2023-04-20T00:21:07.908Z,8.90
2023-04-20T00:23:34.967Z,9.68
2023-04-20T00:26:02.035Z,9.65
2023-04-20T00:28:29.964Z,10.70
2023-04-20T00:30:58.135Z,11.27
2023-04-20T00:33:26.308Z,9.85
2023-04-20T00:35:54.009Z,10.23
2023-04-20T00:38:24.097Z,10.40
2023-04-20T00:40:54.148Z,10.38
2023-04-20T00:43:22.169Z,10.30
2023-04-20T00:45:54.871Z,9.80
2023-04-20T00:48:22.476Z,10.15
2023-04-20T00:50:50.751Z,9.23
2023-04-20T00:53:19.060Z,8.65
2023-04-20T00:55:46.498Z,10.35
2023-04-20T00:58:13.752Z,9.35
2023-04-20T01:00:40.775Z,8.98
2023-04-20T01:03:08.907Z,9.95
2023-04-20T01:05:36.287Z,9.80
2023-04-20T01:08:03.499Z,10.18
2023-04-20T01:10:31.007Z,9.63
2023-04-20T01:12:58.516Z,9.82
2023-04-20T01:15:26.232Z,9.32
2023-04-20T01:17:53.743Z,10.77
2023-04-20T01:20:23.652Z,10.07
2023-04-20T01:22:53.774Z,9.95
2023-04-20T01:25:21.122Z,10.15
2023-04-20T01:27:48.704Z,10.00
2023-04-20T01:30:17.329Z,10.93
2023-04-20T01:32:44.835Z,10.80
2023-04-20T01:35:12.104Z,9.55
2023-04-20T01:37:40.371Z,10.85
2023-04-20T01:40:12.081Z,10.98
2023-04-20T01:42:39.582Z,10.82
2023-04-20T01:45:07.446Z,10.85
2023-04-20T01:47:37.418Z,10.13
2023-04-20T01:50:05.086Z,10.68
2023-04-20T01:52:33.280Z,10.68
2023-04-20T01:55:00.472Z,10.57
2023-04-20T01:57:27.836Z,10.63
2023-04-20T01:59:55.188Z,10.55
2023-04-20T02:02:22.242Z,11.02
2023-04-20T02:04:49.422Z,10.60
2023-04-20T02:07:16.735Z,10.90
2023-04-20T02:09:43.837Z,10.60
2023-04-20T02:12:11.034Z,10.13
2023-04-20T02:14:41.144Z,10.30
2023-04-20T02:17:10.924Z,10.88
2023-04-20T02:19:38.232Z,10.93
2023-04-20T02:22:05.636Z,10.20
2023-04-20T02:24:32.772Z,9.60
2023-04-20T02:26:59.734Z,10.88
2023-04-20T02:29:27.094Z,10.20
2023-04-20T02:31:54.010Z,10.52
2023-04-20T02:34:22.307Z,10.95
2023-04-20T02:36:49.364Z,10.30
2023-04-20T02:39:16.758Z,9.80
2023-04-20T02:41:44.100Z,10.52
2023-04-20T02:44:11.988Z,10.45
2023-04-20T02:46:39.489Z,10.60
2023-04-20T02:49:07.259Z,10.32
2023-04-20T02:51:38.650Z,10.10
2023-04-20T02:54:06.056Z,10.25
2023-04-20T02:56:32.956Z,10.18
2023-04-20T02:59:05.081Z,11.05
2023-04-20T03:02:01.847Z,9.63
2023-04-20T03:04:31.029Z,11.00
2023-04-20T03:07:18.511Z,10.77
2023-04-20T03:09:47.166Z,11.25
2023-04-20T03:12:18.356Z,10.70
2023-04-20T03:14:58.628Z,10.88
2023-04-20T03:17:38.733Z,10.02
2023-04-20T03:20:09.252Z,10.70
2023-04-20T03:22:36.995Z,11.25
2023-04-20T03:25:04.160Z,9.68
2023-04-20T03:27:47.865Z,11.90
2023-04-20T03:30:16.013Z,10.85
2023-04-20T03:32:45.589Z,9.82
2023-04-20T03:35:12.972Z,11.15
2023-04-20T03:37:41.120Z,11.27
2023-04-20T03:40:09.460Z,11.15
2023-04-20T03:42:37.647Z,10.73
2023-04-20T03:45:06.744Z,11.35
2023-04-20T03:47:33.882Z,10.55
2023-04-20T03:50:01.418Z,10.32
2023-04-20T03:52:32.478Z,8.45
2023-04-20T03:55:03.851Z,10.27
2023-04-20T03:57:33.458Z,9.73
2023-04-20T04:00:03.414Z,10.40
2023-04-20T04:02:46.150Z,10.75
2023-04-20T04:05:17.010Z,10.10
2023-04-20T04:07:44.510Z,10.70
2023-04-20T04:10:13.234Z,10.18
2023-04-20T04:12:40.614Z,11.52
2023-04-20T04:15:08.397Z,10.75
2023-04-20T04:17:41.570Z,11.02
2023-04-20T04:20:09.183Z,12.70
2023-04-20T04:22:37.069Z,10.98
2023-04-20T04:25:23.321Z,11.60
2023-04-20T04:27:51.226Z,11.85
2023-04-20T04:30:20.031Z,13.50
2023-04-20T04:32:49.115Z,11.95
2023-04-20T04:35:16.824Z,13.82
2023-04-20T04:37:43.833Z,11.60
2023-04-20T04:40:11.323Z,11.90
2023-04-20T04:42:39.165Z,11.40
2023-04-20T04:45:10.654Z,11.53
2023-04-20T04:47:42.317Z,11.75
2023-04-20T04:50:10.905Z,12.35
2023-04-20T04:52:37.812Z,13.52
2023-04-20T04:55:08.495Z,11.45
2023-04-20T04:57:36.513Z,11.68
2023-04-20T05:00:07.958Z,12.52
2023-04-20T05:02:35.771Z,12.18
2023-04-20T05:05:02.835Z,12.85
2023-04-20T05:07:31.238Z,12.75
2023-04-20T05:09:58.190Z,13.52
2023-04-20T05:12:25.868Z,13.70
2023-04-20T05:14:53.276Z,13.07
2023-04-20T05:17:20.531Z,12.65
2023-04-20T05:19:47.504Z,13.15
2023-04-20T05:22:14.482Z,13.85
2023-04-20T05:24:42.614Z,13.02
2023-04-20T05:27:11.296Z,15.43
2023-04-20T05:29:38.899Z,14.38
2023-04-20T05:32:06.133Z,13.63
2023-04-20T05:34:33.974Z,13.48
2023-04-20T05:37:01.254Z,14.18
2023-04-20T05:39:28.393Z,12.90
2023-04-20T05:41:55.406Z,13.27
2023-04-20T05:44:22.444Z,14.57
2023-04-20T05:46:50.415Z,14.27
2023-04-20T05:49:17.570Z,15.05
2023-04-20T05:51:44.941Z,13.25
2023-04-20T05:54:12.677Z,13.90
2023-04-20T05:56:39.590Z,14.02
2023-04-20T05:59:07.113Z,14.82
2023-04-20T06:01:34.471Z,14.98
2023-04-20T06:04:01.702Z,14.77
2023-04-20T06:06:28.915Z,15.13
2023-04-20T06:08:56.182Z,14.40
2023-04-20T06:11:23.214Z,16.50
2023-04-20T06:13:55.821Z,14.93
2023-04-20T06:16:23.401Z,15.07
2023-04-20T06:18:50.436Z,15.05
2023-04-20T06:21:17.675Z,14.88
2023-04-20T06:23:44.727Z,14.48
2023-04-20T06:26:30.824Z,16.55
2023-04-20T06:28:57.872Z,16.40
2023-04-20T06:31:24.866Z,16.45
2023-04-20T06:33:52.073Z,15.90
2023-04-20T06:36:18.946Z,17.52
2023-04-20T06:38:45.996Z,18.38
2023-04-20T06:41:13.167Z,16.02
2023-04-20T06:43:42.059Z,16.15
2023-04-20T06:46:09.249Z,16.70
2023-04-20T06:48:36.141Z,17.95
2023-04-20T06:51:03.326Z,16.25
2023-04-20T06:53:30.451Z,16.88
2023-04-20T06:55:57.576Z,16.10
2023-04-20T06:58:24.471Z,18.30
2023-04-20T07:00:51.536Z,17.60
2023-04-20T07:03:19.401Z,17.00
2023-04-20T07:05:47.005Z,17.42
2023-04-20T07:08:16.057Z,16.55
2023-04-20T07:10:43.364Z,16.20
2023-04-20T07:13:10.607Z,16.70
2023-04-20T07:15:37.696Z,16.30
2023-04-20T07:18:04.839Z,16.83
2023-04-20T07:20:32.182Z,14.85
2023-04-20T07:22:59.114Z,16.40
2023-04-20T07:25:26.344Z,15.95
2023-04-20T07:27:53.374Z,15.65
2023-04-20T07:30:20.477Z,15.35
2023-04-20T07:32:47.638Z,15.98
2023-04-20T07:35:14.920Z,15.07
2023-04-20T07:37:41.971Z,16.05
2023-04-20T07:40:09.627Z,14.25
2023-04-20T07:42:37.739Z,15.05
2023-04-20T07:45:06.779Z,15.00
2023-04-20T07:47:35.377Z,14.43
2023-04-20T07:50:06.362Z,14.25
2023-04-20T07:52:34.555Z,12.77
2023-04-20T07:55:02.536Z,14.05
2023-04-20T07:57:34.846Z,12.15
2023-04-20T08:00:01.916Z,14.05
2023-04-20T08:02:41.088Z,12.85
2023-04-20T08:05:10.441Z,12.43
2023-04-20T08:10:06.483Z,12.63
2023-04-20T08:12:35.632Z,11.40
2023-04-20T08:15:06.371Z,13.45
2023-04-20T08:17:34.493Z,12.95
2023-04-20T08:20:02.307Z,13.02
2023-04-20T08:22:33.730Z,13.98
2023-04-20T08:25:01.393Z,14.32
2023-04-20T08:27:33.967Z,13.10
2023-04-20T08:30:01.363Z,14.13
2023-04-20T08:32:33.005Z,13.65
2023-04-20T08:34:59.990Z,13.02
2023-04-20T08:37:27.209Z,12.57
2023-04-20T08:39:55.339Z,12.93
2023-04-20T08:42:24.931Z,13.52
2023-04-20T08:47:32.255Z,12.00
2023-04-20T08:50:04.679Z,12.43
2023-04-20T08:55:00.712Z,12.50
2023-04-20T08:57:33.993Z,13.13
2023-04-20T09:00:08.383Z,12.55
2023-04-20T09:02:36.714Z,14.25
2023-04-20T09:05:05.271Z,12.10
2023-04-20T09:07:33.928Z,12.93
2023-04-20T09:10:01.512Z,12.60
2023-04-20T09:12:41.844Z,13.80
2023-04-20T09:15:10.619Z,13.13
2023-04-20T09:17:40.990Z,13.30
2023-04-20T09:20:09.491Z,11.63
2023-04-20T09:22:37.950Z,11.30
2023-04-20T09:25:19.214Z,12.18
2023-04-20T09:27:58.171Z,11.43
2023-04-20T09:30:25.496Z,12.37
2023-04-20T09:33:03.236Z,11.25
2023-04-20T09:35:31.352Z,11.70
2023-04-20T09:37:58.404Z,12.27
2023-04-20T09:40:26.497Z,12.40
2023-04-20T09:42:54.946Z,11.27
2023-04-20T09:45:22.881Z,11.90
2023-04-20T09:47:51.189Z,12.27
2023-04-20T09:50:26.649Z,11.10
2023-04-20T09:52:54.577Z,10.27
2023-04-20T09:55:22.022Z,10.27
2023-04-20T09:57:50.605Z,9.82
2023-04-20T10:00:18.135Z,10.87
2023-04-20T10:02:48.287Z,11.00
2023-04-20T10:05:16.869Z,10.63
2023-04-20T10:07:44.412Z,11.93
2023-04-20T10:10:16.571Z,11.18
2023-04-20T10:12:51.598Z,11.30
2023-04-20T10:15:18.743Z,10.98
2023-04-20T10:17:46.315Z,11.43
2023-04-20T10:20:28.183Z,11.05
2023-04-20T10:23:08.071Z,10.85
2023-04-20T10:25:35.428Z,11.05
2023-04-20T10:28:06.226Z,11.18
2023-04-20T10:30:36.156Z,11.27
2023-04-20T10:33:07.518Z,10.50
2023-04-20T10:35:51.136Z,10.23
2023-04-20T10:38:32.247Z,10.18
2023-04-20T10:41:13.151Z,9.85
2023-04-20T10:43:43.359Z,10.20
2023-04-20T10:46:22.021Z,9.35
2023-04-20T10:49:03.838Z,9.07
2023-04-20T10:51:31.540Z,10.32
2023-04-20T10:53:59.228Z,9.98
2023-04-20T10:56:27.232Z,9.80
2023-04-20T10:58:54.631Z,10.13
2023-04-20T11:01:22.413Z,9.60
2023-04-20T11:03:53.704Z,9.55
2023-04-20T11:06:22.797Z,9.18
2023-04-20T11:08:49.820Z,9.63
2023-04-20T11:11:25.619Z,9.30
2023-04-20T11:13:53.392Z,9.10
2023-04-20T11:16:20.518Z,9.43
2023-04-20T11:18:55.295Z,9.52
2023-04-20T11:21:22.762Z,9.60
2023-04-20T11:23:50.640Z,8.90
2023-04-20T11:26:18.145Z,8.43
2023-04-20T11:28:56.183Z,7.60
2023-04-20T11:31:23.865Z,8.80
2023-04-20T11:33:51.069Z,7.53
2023-04-20T11:36:20.117Z,8.27
2023-04-20T11:38:47.400Z,8.38
2023-04-20T11:41:14.630Z,7.85
2023-04-20T11:43:43.435Z,8.75
2023-04-20T11:46:20.648Z,7.30
2023-04-20T11:48:49.439Z,7.88
2023-04-20T11:51:16.616Z,6.95
2023-04-20T11:53:43.586Z,6.68
2023-04-20T11:56:12.393Z,7.60
2023-04-20T11:58:40.159Z,6.38
2023-04-20T12:01:07.263Z,6.57
2023-04-20T12:03:34.266Z,7.28
2023-04-20T12:06:01.650Z,7.90
2023-04-20T12:08:28.718Z,7.95
2023-04-20T12:10:57.344Z,7.63
2023-04-20T12:13:27.457Z,7.35
2023-04-20T12:15:54.648Z,8.52
2023-04-20T12:18:24.805Z,8.23
2023-04-20T12:20:52.089Z,7.72
2023-04-20T12:23:21.570Z,8.85
2023-04-20T12:25:49.403Z,9.05
2023-04-20T12:28:17.708Z,9.23
2023-04-20T12:30:44.960Z,9.20
2023-04-20T12:33:13.363Z,8.93
2023-04-20T12:35:41.172Z,7.68
2023-04-20T12:38:08.210Z,8.00
2023-04-20T12:40:35.645Z,8.50
2023-04-20T12:43:03.057Z,8.18
2023-04-20T12:45:30.182Z,8.55
2023-04-20T12:48:00.402Z,9.15
2023-04-20T12:50:28.544Z,8.38
2023-04-20T12:53:02.366Z,8.55
2023-04-20T12:55:32.556Z,8.00
2023-04-20T12:57:59.675Z,8.13
2023-04-20T13:00:26.800Z,7.80
2023-04-20T13:02:54.510Z,7.22
2023-04-20T13:05:21.808Z,6.47
2023-04-20T13:07:48.843Z,5.30
2023-04-20T13:10:15.993Z,6.03
2023-04-20T13:12:43.128Z,7.10
2023-04-20T13:15:11.356Z,7.38
2023-04-20T13:17:38.758Z,7.47
2023-04-20T13:20:06.551Z,7.68
2023-04-20T13:22:41.115Z,7.82
2023-04-20T13:25:17.798Z,5.50
2023-04-20T13:27:44.752Z,5.80
2023-04-20T13:30:12.554Z,6.22
2023-04-20T13:32:39.560Z,6.50
2023-04-20T13:35:07.514Z,6.85
2023-04-20T13:37:34.575Z,6.45
2023-04-20T13:40:01.735Z,6.93
2023-04-20T13:42:31.826Z,6.80
2023-04-20T13:44:58.767Z,6.53
2023-04-20T13:47:26.289Z,6.47
2023-04-20T13:49:53.353Z,7.75
2023-04-20T13:52:29.946Z,7.47
2023-04-20T13:55:01.930Z,7.75
2023-04-20T13:57:31.716Z,8.25
2023-04-20T14:00:01.632Z,7.88
2023-04-20T14:02:34.402Z,8.52
2023-04-20T14:05:06.246Z,8.38
2023-04-20T14:08:49.496Z,8.13
2023-04-20T14:16:26.328Z,7.65
2023-04-20T14:24:54.255Z,6.03
2023-04-20T14:27:21.576Z,6.40
2023-04-20T14:29:50.902Z,7.07
2023-04-20T14:32:18.835Z,5.15
2023-04-20T14:34:45.963Z,5.35
2023-04-20T14:37:14.173Z,5.18
2023-04-20T14:39:41.450Z,4.72
2023-04-20T14:42:08.529Z,5.00
2023-04-20T14:44:35.650Z,6.10
2023-04-20T14:47:03.509Z,6.13
2023-04-20T14:49:30.498Z,4.78
2023-04-20T14:51:57.418Z,4.50
2023-04-20T14:54:24.510Z,4.43
2023-04-20T14:56:51.967Z,4.13
2023-04-20T14:59:19.417Z,4.18
2023-04-20T15:02:01.212Z,4.35
2023-04-20T15:04:29.640Z,5.07
2023-04-20T15:06:56.799Z,5.00
2023-04-20T15:09:23.920Z,4.70
2023-04-20T15:11:50.985Z,5.32
2023-04-20T15:14:18.262Z,5.68
2023-04-20T15:16:45.582Z,5.32
2023-04-20T15:19:12.548Z,4.97
2023-04-20T15:21:39.876Z,5.93
2023-04-20T15:24:07.490Z,5.90
2023-04-20T15:26:35.343Z,6.40
2023-04-20T15:29:02.425Z,6.72
2023-04-20T15:31:29.535Z,6.47
2023-04-20T15:33:59.144Z,5.78
2023-04-20T15:36:26.476Z,5.93
2023-04-20T15:38:54.575Z,5.63
2023-04-20T15:41:23.269Z,5.43
2023-04-20T15:43:51.323Z,5.88
2023-04-20T15:46:18.859Z,5.38
2023-04-20T15:48:46.012Z,6.70
2023-04-20T15:51:13.096Z,6.30
2023-04-20T15:53:40.307Z,6.25
2023-04-20T15:56:07.747Z,6.25
2023-04-20T15:58:34.802Z,6.13
2023-04-20T16:01:01.827Z,6.35
2023-04-20T16:03:29.123Z,5.47
2023-04-20T16:05:56.292Z,6.40
2023-04-20T16:08:25.829Z,6.13
2023-04-20T16:10:54.896Z,6.63
2023-04-20T16:13:21.806Z,8.05
2023-04-20T16:15:49.503Z,6.65
2023-04-20T16:18:16.768Z,6.50
2023-04-20T16:20:44.079Z,6.60
2023-04-20T16:23:11.236Z,5.78
2023-04-20T16:25:38.775Z,5.38
2023-04-20T16:28:06.112Z,5.78
2023-04-20T16:30:39.029Z,6.13
2023-04-20T16:33:06.309Z,6.93
2023-04-20T16:35:33.347Z,5.85
2023-04-20T16:38:00.966Z,6.57
2023-04-20T16:40:28.575Z,6.97
2023-04-20T16:42:55.552Z,8.75
2023-04-20T16:45:22.667Z,6.75
2023-04-20T16:47:51.437Z,7.30
2023-04-20T16:50:22.039Z,6.85
2023-04-20T16:52:49.427Z,7.70
2023-04-20T16:55:16.531Z,7.85
2023-04-20T16:57:44.620Z,7.75
2023-04-20T17:00:12.972Z,10.13
2023-04-20T17:02:40.572Z,8.23
2023-04-20T17:05:08.285Z,7.53
2023-04-20T17:07:37.050Z,8.13
2023-04-20T17:10:04.831Z,8.23
2023-04-20T17:12:32.543Z,8.17
2023-04-20T17:15:00.913Z,7.78
2023-04-20T17:17:28.652Z,8.23
2023-04-20T17:19:55.879Z,7.82
2023-04-20T17:22:25.806Z,7.85
2023-04-20T17:24:54.196Z,7.90
2023-04-20T17:27:24.115Z,7.15
2023-04-20T17:29:51.762Z,7.10
2023-04-20T17:32:19.047Z,7.85
2023-04-20T17:34:51.393Z,7.53
2023-04-20T17:37:18.800Z,10.50
2023-04-20T17:39:46.110Z,8.30
2023-04-20T17:42:13.473Z,8.13
2023-04-20T17:44:40.609Z,8.85
2023-04-20T17:47:09.730Z,10.90
2023-04-20T17:49:37.168Z,13.23
2023-04-20T17:52:04.370Z,11.60
2023-04-20T17:54:34.010Z,10.07
2023-04-20T17:57:01.566Z,9.77
2023-04-20T17:59:30.740Z,9.85
2023-04-20T18:01:59.455Z,10.05
2023-04-20T18:04:27.130Z,10.27
2023-04-20T18:06:54.526Z,9.10
2023-04-20T18:09:23.254Z,9.60
2023-04-20T18:11:50.336Z,10.43
2023-04-20T18:14:17.768Z,10.40
2023-04-20T18:16:45.077Z,10.98
2023-04-20T18:19:12.109Z,11.00
2023-04-20T18:21:39.026Z,15.55
2023-04-20T18:24:07.328Z,19.60
2023-04-20T18:26:34.454Z,14.77
2023-04-20T18:29:01.436Z,13.07
2023-04-20T18:31:29.349Z,14.07
2023-04-20T18:33:56.452Z,10.98
2023-04-20T18:36:23.439Z,12.27
2023-04-20T18:38:51.485Z,11.73
2023-04-20T18:41:18.558Z,12.15
2023-04-20T18:43:47.114Z,11.82
2023-04-20T18:46:14.562Z,10.38
2023-04-20T18:48:41.884Z,10.00
2023-04-20T18:51:09.163Z,9.40
2023-04-20T18:53:36.456Z,8.95
2023-04-20T18:56:03.869Z,9.68
2023-04-20T18:58:31.871Z,9.38
2023-04-20T19:01:01.184Z,8.75
2023-04-20T19:05:55.370Z,8.45
2023-04-20T19:08:23.098Z,9.35
2023-04-20T19:10:50.680Z,8.95
2023-04-20T19:13:23.854Z,9.07
2023-04-20T19:15:57.716Z,8.38
2023-04-20T19:18:26.918Z,9.43
2023-04-20T19:20:54.425Z,9.68
2023-04-20T19:23:22.211Z,10.68
2023-04-20T19:25:49.327Z,9.48
2023-04-20T19:28:16.443Z,10.00
2023-04-20T19:30:43.788Z,9.18
2023-04-20T19:33:10.963Z,9.90
2023-04-20T19:35:38.251Z,8.57
2023-04-20T19:38:05.195Z,9.45
2023-04-20T19:40:32.333Z,9.02
2023-04-20T19:42:59.249Z,10.20
2023-04-20T19:45:26.474Z,9.38
2023-04-20T19:47:53.470Z,9.23
2023-04-20T19:50:20.668Z,9.13
2023-04-20T19:52:47.662Z,8.80
2023-04-20T19:55:15.253Z,8.70
2023-04-20T19:57:42.218Z,8.93
2023-04-20T20:00:10.290Z,9.38
2023-04-20T20:02:40.483Z,9.98
2023-04-20T20:05:08.735Z,8.57
2023-04-20T20:07:36.400Z,9.23
2023-04-20T20:10:04.679Z,8.95
2023-04-20T20:12:33.768Z,8.90
2023-04-20T20:15:01.131Z,20.05
2023-04-20T20:17:29.563Z,36.88
2023-04-20T20:19:56.526Z,9.25
2023-04-20T20:22:23.749Z,9.57
2023-04-20T20:24:52.200Z,10.20
2023-04-20T20:27:19.470Z,8.18
2023-04-20T20:29:46.813Z,9.55
2023-04-20T20:32:13.832Z,8.77
2023-04-20T20:34:41.413Z,9.35
2023-04-20T20:37:10.519Z,9.63
2023-04-20T20:39:44.626Z,8.82
2023-04-20T20:42:12.548Z,8.38
2023-04-20T20:45:50.012Z,8.73
2023-04-20T20:48:17.398Z,9.05
2023-04-20T20:50:44.664Z,8.57
2023-04-20T20:53:12.270Z,10.05
2023-04-20T20:55:39.197Z,11.23
2023-04-20T20:58:09.145Z,10.05
2023-04-20T21:00:36.496Z,10.57
2023-04-20T21:03:03.655Z,11.57
2023-04-20T21:05:31.890Z,10.30
2023-04-20T21:07:59.885Z,12.15
2023-04-20T21:10:27.088Z,11.48
2023-04-20T21:12:54.102Z,9.25
2023-04-20T21:15:21.286Z,9.88
2023-04-20T21:17:50.914Z,8.70
2023-04-20T21:20:18.703Z,8.65
2023-04-20T21:22:45.725Z,8.77
2023-04-20T21:25:12.977Z,8.68
2023-04-20T21:27:40.005Z,9.10
2023-04-20T21:30:16.127Z,9.02
2023-04-20T21:32:57.726Z,8.93
2023-04-20T21:35:24.792Z,8.38
2023-04-20T21:37:51.835Z,9.43
2023-04-20T21:40:18.901Z,8.25
2023-04-20T21:42:46.011Z,8.02
2023-04-20T21:45:13.018Z,7.95
2023-04-20T21:47:40.279Z,8.00
2023-04-20T21:50:07.464Z,8.20
2023-04-20T21:52:34.837Z,8.38
2023-04-20T21:55:01.759Z,7.80
2023-04-20T21:57:31.187Z,9.00
2023-04-20T21:59:58.518Z,8.38
2023-04-20T22:02:25.816Z,8.95
2023-04-20T22:04:52.933Z,8.65
2023-04-20T22:07:20.975Z,8.40
2023-04-20T22:09:48.044Z,8.52
2023-04-20T22:12:15.133Z,8.32
2023-04-20T22:14:43.023Z,8.65
2023-04-20T22:17:11.825Z,8.43
2023-04-20T22:19:39.046Z,9.13
2023-04-20T22:22:06.099Z,8.43
2023-04-20T22:24:33.429Z,8.82
2023-04-20T22:27:01.418Z,7.68
2023-04-20T22:29:28.834Z,8.57
2023-04-20T22:31:55.896Z,8.13
2023-04-20T22:34:22.773Z,8.23
2023-04-20T22:36:50.008Z,9.68
2023-04-20T22:39:17.229Z,9.00
2023-04-20T22:41:44.490Z,8.98
2023-04-20T22:44:11.419Z,9.93
2023-04-20T22:46:38.839Z,9.38
2023-04-20T22:49:05.767Z,9.65
2023-04-20T22:51:33.362Z,10.52
2023-04-20T22:54:02.897Z,10.07
2023-04-20T22:56:30.490Z,9.25
2023-04-20T22:58:57.627Z,9.43
2023-04-20T23:01:25.155Z,10.23
2023-04-20T23:03:52.452Z,9.68
2023-04-20T23:06:22.046Z,10.02
2023-04-20T23:08:50.670Z,9.43
2023-04-20T23:11:18.869Z,10.00
2023-04-20T23:13:48.535Z,9.02
2023-04-20T23:16:15.536Z,9.88
2023-04-20T23:18:42.524Z,9.65
2023-04-20T23:21:10.806Z,10.23
2023-04-20T23:23:37.705Z,10.18
2023-04-20T23:26:04.854Z,9.48
2023-04-20T23:28:32.069Z,10.35
2023-04-20T23:31:00.028Z,10.15
2023-04-20T23:33:27.102Z,9.73
2023-04-20T23:35:54.303Z,10.27
2023-04-20T23:38:21.339Z,10.20
2023-04-20T23:40:48.376Z,9.70
2023-04-20T23:43:15.368Z,9.95
2023-04-20T23:45:42.524Z,9.60
2023-04-20T23:48:10.666Z,8.70
2023-04-20T23:50:37.836Z,10.32
2023-04-20T23:53:05.740Z,9.98
2023-04-20T23:55:33.158Z,9.85
2023-04-20T23:58:00.191Z,9.60
